Terminal Aerodrome Forecast
Issued by NWS

Home | Current Version | Previous Version | Text Only | Print | Product List | Glossary On
Versions: 1 2 3 4 5 6 7 8 9 10 11 12 13 14 15 16 17 18 19 20 21 22 23 24 25 26 27
000
FTUS43 KPAH 280520
TAFOWB
TAF
KOWB 280520Z 2806/2906 VRB03KT P6SM FEW040 SCT250
      TEMPO 2809/2813 5SM BR SCT060
     FM281500 25006KT P6SM SCT035 BKN150
     FM290100 00000KT P6SM FEW050=

USA.gov is the U.S. government's official web portal to all federal, state and local government web resources and services.